createdAt,value
2022-11-25T00:00:00.928Z,96807.44
2022-11-25T00:02:27.492Z,96774.19
2022-11-25T00:04:54.091Z,96808.97
2022-11-25T00:07:20.657Z,96795.16
2022-11-25T00:09:47.124Z,96793.31
2022-11-25T00:12:13.555Z,96805.03
2022-11-25T00:14:40.032Z,96781.28
2022-11-25T00:17:06.535Z,96732.88
2022-11-25T00:19:33.554Z,96796.16
2022-11-25T00:21:59.994Z,96756.84
2022-11-25T00:24:27.353Z,96797.88
2022-11-25T00:26:53.785Z,96797.78
2022-11-25T00:29:20.231Z,96823.47
2022-11-25T00:31:46.723Z,96782.28
2022-11-25T00:34:14.611Z,96820.38
2022-11-25T00:36:41.240Z,96799.81
2022-11-25T00:39:13.749Z,96798.16
2022-11-25T00:42:00.138Z,96809.56
2022-11-25T00:44:37.311Z,96814.84
2022-11-25T00:47:08.085Z,96821.44
2022-11-25T00:49:35.194Z,96767.66
2022-11-25T00:52:02.159Z,96785.41
2022-11-25T00:54:28.647Z,96791.78
2022-11-25T00:56:55.164Z,96800.19
2022-11-25T00:59:21.658Z,96786.66
2022-11-25T01:01:48.458Z,96794.84
2022-11-25T01:04:15.411Z,96816.28
2022-11-25T01:06:41.906Z,96747.06
2022-11-25T01:09:09.098Z,96780.50
2022-11-25T01:11:38.565Z,96811.09
2022-11-25T01:14:05.372Z,96792.47
2022-11-25T01:16:32.329Z,96801.03
2022-11-25T01:19:00.430Z,96818.88
2022-11-25T01:21:29.815Z,96812.88
2022-11-25T01:23:56.663Z,96799.69
2022-11-25T01:26:24.909Z,96806.94
2022-11-25T01:29:00.137Z,96796.88
2022-11-25T01:31:29.471Z,96820.59
2022-11-25T01:33:58.935Z,96777.31
2022-11-25T01:36:25.855Z,96811.28
2022-11-25T01:38:55.188Z,96804.84
2022-11-25T01:41:23.428Z,96785.34
2022-11-25T01:44:14.373Z,96811.75
2022-11-25T01:46:49.963Z,96814.00
2022-11-25T01:49:26.872Z,96787.41
2022-11-25T01:51:53.269Z,96813.09
2022-11-25T01:54:24.030Z,96804.84
2022-11-25T01:56:56.444Z,96773.09
2022-11-25T01:59:23.838Z,96805.75
2022-11-25T02:01:50.693Z,96819.94
2022-11-25T02:04:20.279Z,96788.13
2022-11-25T02:06:57.652Z,96800.84
2022-11-25T02:09:27.032Z,96785.69
2022-11-25T02:11:54.104Z,96791.25
2022-11-25T02:14:22.459Z,96798.47
2022-11-25T02:16:51.999Z,96799.69
2022-11-25T02:19:32.077Z,96817.69
2022-11-25T02:22:05.079Z,96797.66
2022-11-25T02:24:43.003Z,96797.81
2022-11-25T02:27:09.605Z,96799.94
2022-11-25T02:29:37.409Z,96812.63
2022-11-25T02:32:05.909Z,96749.56
2022-11-25T02:34:32.470Z,96790.25
2022-11-25T02:37:00.587Z,96778.22
2022-11-25T02:39:28.610Z,96799.53
2022-11-25T02:42:00.129Z,96770.09
2022-11-25T02:44:27.381Z,96787.31
2022-11-25T02:46:53.827Z,96788.03
2022-11-25T02:49:20.395Z,96788.38
2022-11-25T02:51:47.895Z,96782.69
2022-11-25T02:54:17.508Z,96766.63
2022-11-25T02:56:43.981Z,96784.00
2022-11-25T02:59:11.112Z,96791.69
2022-11-25T03:01:39.007Z,96799.38
2022-11-25T03:04:07.747Z,96779.84
2022-11-25T03:06:35.054Z,96782.34
2022-11-25T03:09:02.549Z,96793.84
2022-11-25T03:11:48.481Z,96799.19
2022-11-25T03:14:15.525Z,96797.34
2022-11-25T03:16:43.054Z,96779.59
2022-11-25T03:19:09.711Z,96789.56
2022-11-25T03:21:36.735Z,96788.03
2022-11-25T03:24:03.322Z,96766.47
2022-11-25T03:26:29.839Z,96817.66
2022-11-25T03:28:56.320Z,96798.94
2022-11-25T03:31:23.176Z,96804.31
2022-11-25T03:33:49.684Z,96808.72
2022-11-25T03:36:16.032Z,96814.16
2022-11-25T03:38:42.545Z,96816.59
2022-11-25T03:41:09.121Z,96796.69
2022-11-25T03:43:36.481Z,96789.03
2022-11-25T03:46:03.067Z,96801.69
2022-11-25T03:48:30.315Z,96788.06
2022-11-25T03:50:56.970Z,96810.59
2022-11-25T03:53:25.242Z,96790.09
2022-11-25T03:55:52.103Z,96788.69
2022-11-25T03:58:21.459Z,96805.53
2022-11-25T04:00:49.685Z,96788.47
2022-11-25T04:03:16.664Z,96808.66
2022-11-25T04:05:43.599Z,96816.69
2022-11-25T04:08:10.074Z,96812.22
2022-11-25T04:10:38.127Z,96806.34
2022-11-25T04:13:05.940Z,96807.50
2022-11-25T04:15:44.850Z,96797.25
2022-11-25T04:18:11.374Z,96830.50
2022-11-25T04:20:39.144Z,96801.63
2022-11-25T04:23:08.447Z,96816.16
2022-11-25T04:25:40.947Z,96807.41
2022-11-25T04:28:12.450Z,96759.75
2022-11-25T04:30:39.547Z,96790.91
2022-11-25T04:33:06.523Z,96769.50
2022-11-25T04:35:33.024Z,96785.44
2022-11-25T04:37:59.598Z,96745.22
2022-11-25T04:40:26.132Z,96774.06
2022-11-25T04:43:10.862Z,96788.94
2022-11-25T04:48:28.919Z,96789.91
2022-11-25T04:50:55.827Z,96764.38
2022-11-25T04:53:22.458Z,96779.47
2022-11-25T04:55:49.072Z,96777.16
2022-11-25T04:58:35.786Z,96783.13
2022-11-25T05:01:03.195Z,96794.03
2022-11-25T05:03:30.235Z,96789.28
2022-11-25T05:05:56.979Z,96799.16
2022-11-25T05:08:23.999Z,96788.34
2022-11-25T05:10:50.535Z,96775.44
2022-11-25T05:13:17.168Z,96806.13
2022-11-25T05:15:44.236Z,96791.56
2022-11-25T05:18:12.374Z,96763.50
2022-11-25T05:20:44.419Z,96792.41
2022-11-25T05:23:11.595Z,96794.06
2022-11-25T05:25:38.106Z,96809.69
2022-11-25T05:28:26.198Z,96744.75
2022-11-25T05:30:53.304Z,96792.66
2022-11-25T05:33:20.299Z,96808.00
2022-11-25T05:36:01.353Z,96809.34
2022-11-25T05:38:35.049Z,96778.38
2022-11-25T05:41:04.696Z,96805.59
2022-11-25T05:43:31.599Z,96809.19
2022-11-25T05:46:00.286Z,96799.66
2022-11-25T05:48:27.031Z,96797.06
2022-11-25T05:50:53.556Z,96785.44
2022-11-25T05:53:22.806Z,96773.69
2022-11-25T05:56:00.002Z,96808.38
2022-11-25T05:58:50.509Z,96791.88
2022-11-25T06:01:17.594Z,96792.03
2022-11-25T06:03:45.331Z,96817.13
2022-11-25T06:06:12.079Z,96817.00
2022-11-25T06:08:39.796Z,96796.47
2022-11-25T06:11:12.221Z,96808.81
2022-11-25T06:13:39.349Z,96821.53
2022-11-25T06:16:09.345Z,96833.19
2022-11-25T06:18:37.502Z,96827.47
2022-11-25T06:21:07.191Z,96829.72
2022-11-25T06:23:34.290Z,96826.28
2022-11-25T06:26:13.692Z,96834.16
2022-11-25T06:28:40.463Z,96819.53
2022-11-25T06:31:15.530Z,96829.06
2022-11-25T06:33:53.825Z,96837.72
2022-11-25T06:36:22.269Z,96842.22
2022-11-25T06:38:51.839Z,96814.13
2022-11-25T06:41:18.904Z,96841.38
2022-11-25T06:43:45.442Z,96844.84
2022-11-25T06:46:18.524Z,96815.94
2022-11-25T06:48:49.581Z,96861.28
2022-11-25T06:51:16.484Z,96839.56
2022-11-25T06:53:43.626Z,96826.56
2022-11-25T06:56:14.441Z,96862.16
2022-11-25T06:58:42.239Z,96869.69
2022-11-25T07:01:17.511Z,96869.75
2022-11-25T07:03:45.601Z,96865.31
2022-11-25T07:06:13.668Z,96862.66
2022-11-25T07:08:40.770Z,96863.53
2022-11-25T07:11:10.578Z,96872.91
2022-11-25T07:13:37.075Z,96839.03
2022-11-25T07:16:05.578Z,96830.03
2022-11-25T07:18:34.254Z,96864.59
2022-11-25T07:21:09.449Z,96865.41
2022-11-25T07:23:37.541Z,96871.13
2022-11-25T07:26:15.148Z,96860.41
2022-11-25T07:28:42.496Z,96856.41
2022-11-25T07:31:24.206Z,96857.00
2022-11-25T07:33:55.867Z,96858.09
2022-11-25T07:36:23.182Z,96850.25
2022-11-25T07:38:49.684Z,96847.91
2022-11-25T07:41:24.533Z,96862.47
2022-11-25T07:43:54.486Z,96853.94
2022-11-25T07:46:34.653Z,96847.38
2022-11-25T07:49:05.299Z,96873.72
2022-11-25T07:51:40.909Z,96866.28
2022-11-25T07:54:10.062Z,96882.03
2022-11-25T07:56:38.813Z,96860.31
2022-11-25T07:59:06.319Z,96885.66
2022-11-25T08:01:32.830Z,96892.28
2022-11-25T08:03:59.394Z,96881.13
2022-11-25T08:06:28.714Z,96867.38
2022-11-25T08:08:56.710Z,96909.06
2022-11-25T08:11:29.509Z,96914.31
2022-11-25T08:13:57.249Z,96921.13
2022-11-25T08:16:27.243Z,96907.94
2022-11-25T08:18:54.854Z,96924.09
2022-11-25T08:21:21.531Z,96915.09
2022-11-25T08:23:48.855Z,96895.50
2022-11-25T08:26:20.693Z,96926.16
2022-11-25T08:28:47.653Z,96915.44
2022-11-25T08:31:20.937Z,96908.03
2022-11-25T08:33:48.268Z,96929.50
2022-11-25T08:36:15.901Z,96921.81
2022-11-25T08:38:43.076Z,96901.69
2022-11-25T08:41:12.653Z,96928.25
2022-11-25T08:43:39.373Z,96906.81
2022-11-25T08:46:12.100Z,96932.63
2022-11-25T08:48:38.671Z,96925.13
2022-11-25T08:51:18.386Z,96934.41
2022-11-25T08:53:46.818Z,96932.63
2022-11-25T08:56:14.918Z,96914.75
2022-11-25T08:58:41.720Z,96911.34
2022-11-25T09:01:09.551Z,96927.13
2022-11-25T09:03:42.055Z,96928.06
2022-11-25T09:06:09.538Z,96920.94
2022-11-25T09:08:37.599Z,96919.31
2022-11-25T09:11:04.672Z,96897.16
2022-11-25T09:13:31.441Z,96909.31
2022-11-25T09:15:58.377Z,96912.44
2022-11-25T09:18:26.261Z,96887.91
2022-11-25T09:20:53.821Z,96921.44
2022-11-25T09:23:20.591Z,96929.22
2022-11-25T09:25:55.035Z,96926.41
2022-11-25T09:28:22.609Z,96935.22
2022-11-25T09:30:50.027Z,96910.66
2022-11-25T09:33:17.252Z,96937.47
2022-11-25T09:35:44.051Z,96937.63
2022-11-25T09:38:10.555Z,96903.31
2022-11-25T09:40:49.397Z,96897.00
2022-11-25T09:43:56.368Z,96924.88
2022-11-25T09:46:56.731Z,96945.22
2022-11-25T09:49:40.945Z,96937.91
2022-11-25T09:52:20.001Z,96946.50
2022-11-25T09:54:59.489Z,96919.94
2022-11-25T09:58:03.448Z,96940.97
2022-11-25T10:00:40.877Z,96931.50
2022-11-25T10:03:29.318Z,96941.34
2022-11-25T10:06:18.905Z,96932.97
2022-11-25T10:08:51.473Z,96941.53
2022-11-25T10:11:21.711Z,96943.63
2022-11-25T10:13:52.608Z,96915.78
2022-11-25T10:16:33.536Z,96922.78
2022-11-25T10:19:08.290Z,96929.31
2022-11-25T10:21:34.739Z,96894.75
2022-11-25T10:24:02.857Z,96923.72
2022-11-25T10:26:37.177Z,96906.28
2022-11-25T10:29:30.515Z,96914.31
2022-11-25T10:32:09.267Z,96884.94
2022-11-25T10:34:45.714Z,96913.31
2022-11-25T10:37:24.918Z,96921.91
2022-11-25T10:39:51.391Z,96892.78
2022-11-25T10:42:25.125Z,96916.47
2022-11-25T10:44:52.119Z,96876.06
2022-11-25T10:47:44.247Z,96900.16
2022-11-25T10:50:15.979Z,96907.41
2022-11-25T10:52:50.116Z,96900.94
2022-11-25T10:55:28.981Z,96922.38
2022-11-25T10:57:56.113Z,96925.34
2022-11-25T11:00:31.114Z,96919.31
2022-11-25T11:02:58.699Z,96893.16
2022-11-25T11:05:30.811Z,96935.38
2022-11-25T11:08:12.283Z,96924.53
2022-11-25T11:10:39.494Z,96915.94
2022-11-25T11:13:17.846Z,96926.03
2022-11-25T11:33:31.015Z,96916.19
2022-11-25T11:36:34.990Z,96923.38
2022-11-25T11:39:08.374Z,96912.72
2022-11-25T11:41:56.610Z,96904.72
2022-11-25T11:44:35.363Z,96903.94
2022-11-25T11:47:12.614Z,96905.22
2022-11-25T11:50:09.391Z,96908.91
2022-11-25T11:52:56.519Z,96901.25
2022-11-25T11:56:11.691Z,96912.09
2022-11-25T11:58:59.051Z,96907.31
2022-11-25T12:01:44.298Z,96913.16
2022-11-25T12:04:27.862Z,96893.13
2022-11-25T12:07:12.144Z,96855.47
2022-11-25T12:10:14.058Z,96909.34
2022-11-25T12:12:48.566Z,96883.91
2022-11-25T12:15:30.011Z,96894.13
2022-11-25T12:18:02.520Z,96906.53
2022-11-25T12:20:52.961Z,96915.56
2022-11-25T12:23:36.177Z,96893.72
2022-11-25T12:26:09.950Z,96884.50
2022-11-25T12:28:43.735Z,96911.97
2022-11-25T12:31:25.918Z,96870.09
2022-11-25T12:34:00.170Z,96898.72
2022-11-25T12:36:34.376Z,96899.72
2022-11-25T12:39:19.434Z,96886.72
2022-11-25T12:41:54.846Z,96914.38
2022-11-25T12:44:42.838Z,96916.13
2022-11-25T12:47:11.470Z,96899.13
2022-11-25T12:49:47.114Z,96909.34
2022-11-25T12:52:39.232Z,96878.31
2022-11-25T12:55:08.940Z,96910.94
2022-11-25T12:58:00.087Z,96917.97
2022-11-25T13:01:03.551Z,96938.41
2022-11-25T13:04:07.346Z,96944.63
2022-11-25T13:06:52.542Z,96946.00
2022-11-25T13:09:39.054Z,96946.59
2022-11-25T13:12:41.868Z,96940.00
2022-11-25T13:15:27.190Z,96945.22
2022-11-25T13:18:16.655Z,96945.41
2022-11-25T13:20:45.777Z,96951.22
2022-11-25T13:23:13.021Z,96945.22
2022-11-25T13:25:42.901Z,96938.78
2022-11-25T13:28:37.715Z,96953.81
2022-11-25T13:31:13.290Z,96960.63
2022-11-25T13:33:42.546Z,96962.84
2022-11-25T13:36:19.944Z,96965.81
2022-11-25T13:38:49.400Z,96969.25
2022-11-25T13:41:15.986Z,96976.03
2022-11-25T13:44:02.524Z,96968.84
2022-11-25T13:46:45.450Z,96972.06
2022-11-25T13:49:42.363Z,96982.47
2022-11-25T13:52:11.800Z,96974.41
2022-11-25T13:54:49.681Z,96954.41
2022-11-25T13:57:31.352Z,96966.22
2022-11-25T14:00:05.912Z,96947.78
2022-11-25T14:02:49.278Z,96980.66
2022-11-25T14:05:36.660Z,96975.06
2022-11-25T14:08:19.359Z,96967.47
2022-11-25T14:10:53.283Z,96977.25
2022-11-25T14:13:44.323Z,96983.25
2022-11-25T14:16:29.472Z,96981.47
2022-11-25T14:19:50.704Z,96976.25
2022-11-25T14:22:12.500Z,96995.69
2022-11-25T14:24:49.600Z,97003.91
2022-11-25T14:27:31.970Z,97001.69
2022-11-25T14:30:06.695Z,96995.25
2022-11-25T14:32:36.777Z,96991.25
2022-11-25T14:35:11.503Z,97005.28
2022-11-25T14:37:59.136Z,97015.53
2022-11-25T14:40:36.537Z,97000.25
2022-11-25T14:43:07.980Z,97016.91
2022-11-25T14:45:35.934Z,97011.94
2022-11-25T14:48:18.915Z,97017.91
2022-11-25T14:50:56.374Z,97026.34
2022-11-25T14:53:22.890Z,97011.69
2022-11-25T14:55:49.432Z,97030.34
2022-11-25T14:58:16.423Z,97019.72
2022-11-25T15:01:04.088Z,97033.16
2022-11-25T15:03:30.744Z,97038.97
2022-11-25T15:06:02.653Z,97038.75
2022-11-25T15:08:39.690Z,97031.13
2022-11-25T15:11:12.786Z,97043.34
2022-11-25T15:13:42.175Z,97024.31
2022-11-25T15:16:30.282Z,97042.16
2022-11-25T15:18:59.059Z,97051.00
2022-11-25T15:22:14.639Z,97014.50
2022-11-25T15:24:29.595Z,97051.00
2022-11-25T15:26:59.903Z,97047.13
2022-11-25T15:29:28.794Z,97053.34
2022-11-25T15:31:56.512Z,97060.78
2022-11-25T15:34:23.991Z,97059.16
2022-11-25T15:36:54.473Z,97073.81
2022-11-25T15:39:20.944Z,97077.41
2022-11-25T15:41:49.501Z,97082.63
2022-11-25T15:44:29.409Z,97076.56
2022-11-25T15:47:05.121Z,97074.56
2022-11-25T15:49:33.934Z,97076.56
2022-11-25T15:52:08.931Z,97072.75
2022-11-25T15:54:42.893Z,97094.00
2022-11-25T15:57:23.311Z,97096.44
2022-11-25T16:00:05.438Z,97099.66
2022-11-25T16:02:41.954Z,97105.84
2022-11-25T16:05:32.272Z,97107.47
2022-11-25T16:08:23.064Z,97104.06
2022-11-25T16:10:52.938Z,97101.25
2022-11-25T16:13:25.648Z,97107.47
2022-11-25T16:15:58.078Z,97107.47
2022-11-25T16:18:46.667Z,97099.66
2022-11-25T16:21:30.218Z,97109.66
2022-11-25T16:24:14.183Z,97120.06
2022-11-25T16:27:00.665Z,97126.69
2022-11-25T16:29:31.623Z,97127.69
2022-11-25T16:31:59.210Z,97128.69
2022-11-25T16:34:26.948Z,97131.91
2022-11-25T16:36:54.242Z,97103.41
2022-11-25T16:39:20.685Z,97113.22
2022-11-25T16:41:54.648Z,97135.91
2022-11-25T16:44:23.190Z,97142.28
2022-11-25T16:46:51.057Z,97140.06
2022-11-25T16:49:18.951Z,97138.72
2022-11-25T16:51:45.772Z,97138.66
2022-11-25T16:54:12.760Z,97144.94
2022-11-25T16:56:42.360Z,97121.44
2022-11-25T16:59:20.725Z,97164.78
2022-11-25T17:01:47.405Z,97130.25
2022-11-25T17:04:14.985Z,97157.13
2022-11-25T17:06:42.165Z,97132.53
2022-11-25T17:09:08.718Z,97141.34
2022-11-25T17:11:52.047Z,97164.59
2022-11-25T17:14:24.841Z,97163.78
2022-11-25T17:16:51.632Z,97176.41
2022-11-25T17:19:18.204Z,97171.56
2022-11-25T17:21:44.925Z,97171.56
2022-11-25T17:24:22.578Z,97188.00
2022-11-25T17:26:59.559Z,97184.75
2022-11-25T17:29:35.219Z,97188.72
2022-11-25T17:32:02.724Z,97174.59
2022-11-25T17:34:29.300Z,97191.00
2022-11-25T17:36:56.437Z,97188.19
2022-11-25T17:39:22.896Z,97185.94
2022-11-25T17:41:51.617Z,97192.94
2022-11-25T17:44:28.771Z,97200.88
2022-11-25T17:46:56.877Z,97199.25
2022-11-25T17:49:24.120Z,97196.22
2022-11-25T17:51:50.781Z,97210.03
2022-11-25T17:54:17.832Z,97172.59
2022-11-25T17:56:49.188Z,97230.84
2022-11-25T17:59:28.290Z,97223.69
2022-11-25T18:01:56.056Z,97211.31
2022-11-25T18:04:32.111Z,97181.06
2022-11-25T18:06:58.536Z,97182.56
2022-11-25T18:09:24.934Z,97228.59
2022-11-25T18:11:54.360Z,97191.50
2022-11-25T18:14:28.366Z,97238.78
2022-11-25T18:16:55.311Z,97247.19
2022-11-25T18:19:21.964Z,97236.94
2022-11-25T18:21:48.463Z,97247.47
2022-11-25T18:24:14.843Z,97250.28
2022-11-25T18:26:48.015Z,97235.19
2022-11-25T18:29:20.028Z,97253.97
2022-11-25T18:31:47.201Z,97248.66
2022-11-25T18:34:15.446Z,97261.44
2022-11-25T18:36:42.797Z,97266.13
2022-11-25T18:39:10.114Z,97281.47
2022-11-25T18:41:38.225Z,97277.09
2022-11-25T18:44:06.615Z,97249.97
2022-11-25T18:46:37.724Z,97279.06
2022-11-25T18:49:14.480Z,97295.88
2022-11-25T18:51:41.818Z,97292.03
2022-11-25T18:54:09.561Z,97285.94
2022-11-25T18:56:37.688Z,97268.84
2022-11-25T18:59:06.278Z,97278.38
2022-11-25T19:01:32.857Z,97301.88
2022-11-25T19:04:00.081Z,97268.13
2022-11-25T19:06:30.173Z,97302.00
2022-11-25T19:08:56.672Z,97292.69
2022-11-25T19:11:30.220Z,97314.88
2022-11-25T19:14:03.918Z,97300.00
2022-11-25T19:16:30.439Z,97283.25
2022-11-25T19:18:56.968Z,97323.09
2022-11-25T19:21:23.325Z,97336.38
2022-11-25T19:23:49.866Z,97324.25
2022-11-25T19:26:23.674Z,97331.53
2022-11-25T19:28:54.721Z,97349.97
2022-11-25T19:31:21.366Z,97326.25
2022-11-25T19:33:51.012Z,97350.16
2022-11-25T19:36:23.740Z,97355.78
2022-11-25T19:38:50.294Z,97302.59
2022-11-25T19:41:16.746Z,97356.59
2022-11-25T19:43:43.225Z,97365.53
2022-11-25T19:46:33.113Z,97372.59
2022-11-25T19:49:04.907Z,97363.78
2022-11-25T19:51:33.930Z,97378.81
2022-11-25T19:54:00.461Z,97341.56
2022-11-25T19:56:27.243Z,97397.19
2022-11-25T19:58:54.626Z,97372.19
2022-11-25T20:01:30.388Z,97384.91
2022-11-25T20:03:58.234Z,97379.59
2022-11-25T20:06:25.819Z,97412.91
2022-11-25T20:08:52.338Z,97397.25
2022-11-25T20:11:19.267Z,97423.22
2022-11-25T20:13:46.909Z,97420.19
2022-11-25T20:16:22.732Z,97441.75
2022-11-25T20:18:51.500Z,97437.41
2022-11-25T20:21:26.400Z,97435.63
2022-11-25T20:23:53.909Z,97448.06
2022-11-25T20:26:38.066Z,97453.25
2022-11-25T20:29:15.554Z,97449.56
2022-11-25T20:31:42.134Z,97443.94
2022-11-25T20:34:08.702Z,97468.78
2022-11-25T20:36:35.351Z,97463.88
2022-11-25T20:39:03.289Z,97465.94
2022-11-25T20:41:30.738Z,97470.44
2022-11-25T20:43:57.873Z,97468.56
2022-11-25T20:46:29.384Z,97473.19
2022-11-25T20:49:02.198Z,97476.75
2022-11-25T20:51:29.059Z,97471.75
2022-11-25T20:53:57.990Z,97479.06
2022-11-25T20:56:26.839Z,97489.03
2022-11-25T20:58:53.726Z,97485.06
2022-11-25T21:01:20.599Z,97492.94
2022-11-25T21:03:49.137Z,97494.44
2022-11-25T21:06:25.661Z,97506.19
2022-11-25T21:08:54.014Z,97500.97
2022-11-25T21:11:21.691Z,97487.34
2022-11-25T21:13:48.698Z,97509.94
2022-11-25T21:16:15.466Z,97512.53
2022-11-25T21:18:42.860Z,97516.78
2022-11-25T21:21:19.448Z,97516.09
2022-11-25T21:23:47.929Z,97518.91
2022-11-25T21:26:20.665Z,97516.78
2022-11-25T21:28:50.037Z,97524.69
2022-11-25T21:31:22.435Z,97509.94
2022-11-25T21:33:49.965Z,97529.56
2022-11-25T21:36:27.121Z,97507.75
2022-11-25T21:39:02.942Z,97521.69
2022-11-25T21:41:29.671Z,97540.75
2022-11-25T21:43:56.271Z,97513.59
2022-11-25T21:46:26.660Z,97513.28
2022-11-25T21:48:53.367Z,97538.16
2022-11-25T21:51:24.032Z,97546.22
2022-11-25T21:53:51.389Z,97549.81
2022-11-25T21:56:30.876Z,97545.88
2022-11-25T21:58:59.742Z,97550.59
2022-11-25T22:01:26.416Z,97550.78
2022-11-25T22:03:53.081Z,97556.50
2022-11-25T22:06:26.253Z,97557.81
2022-11-25T22:08:52.928Z,97560.94
2022-11-25T22:11:28.683Z,97568.50
2022-11-25T22:13:55.303Z,97565.88
2022-11-25T22:16:28.958Z,97564.13
2022-11-25T22:18:55.912Z,97576.88
2022-11-25T22:21:22.879Z,97557.75
2022-11-25T22:23:49.788Z,97566.66
2022-11-25T22:26:21.371Z,97559.63
2022-11-25T22:28:51.618Z,97562.81
2022-11-25T22:31:20.250Z,97571.25
2022-11-25T22:33:47.463Z,97563.16
2022-11-25T22:36:34.027Z,97576.22
2022-11-25T22:39:23.363Z,97577.75
2022-11-25T22:42:07.412Z,97569.94
2022-11-25T22:44:42.776Z,97586.47
2022-11-25T22:47:22.846Z,97581.81
2022-11-25T22:49:50.459Z,97582.91
2022-11-25T22:52:21.944Z,97594.41
2022-11-25T22:54:49.327Z,97593.78
2022-11-25T22:57:17.041Z,97569.38
2022-11-25T22:59:44.077Z,97603.91
2022-11-25T23:18:13.835Z,97619.53
2022-11-25T23:20:40.346Z,97622.06
2022-11-25T23:23:21.476Z,97625.09
2022-11-25T23:25:48.728Z,97626.53
2022-11-25T23:28:16.395Z,97625.91
2022-11-25T23:30:48.153Z,97631.72
2022-11-25T23:33:22.828Z,97635.63
2022-11-25T23:35:49.408Z,97634.78
2022-11-25T23:38:21.502Z,97637.69
2022-11-25T23:40:48.003Z,97630.03
2022-11-25T23:43:15.614Z,97637.69
2022-11-25T23:45:51.296Z,97632.13
2022-11-25T23:48:20.497Z,97635.50
2022-11-25T23:50:47.641Z,97625.53
2022-11-25T23:53:36.034Z,97635.16
2022-11-25T23:56:02.618Z,97625.09
2022-11-25T23:58:29.222Z,97640.09
